Eikamaru No.2 — JD3056 — position and weather

sailwx.info

Track history (hours):
 
Tides and Currents Weather Stations Pressure Air Temp Water Temp Dewpoint Dewpoint Depression Visibility Wind Speed Wind Dir Waves Ship Positions

Eikamaru No.2

Last reported at 2017-Mar-23 05:11 UTC. Time now 2017-Mar-24 08:16 UTC.
Position N 35°12' E 139°46'.

Length 60 m; draft 3.3 m.

Type: Tanker. MMSI: 431001342.

Date/timePositionNaut miles runAvg speedWind from/ knotsBaromVisibWave heightAir tempDewpointWater temp
2017-Mar-23 05:11N 35°12' E 139°46'710.8
2017-Mar-23 04:33N 35°19' E 139°43'9 9.2
2017-Mar-23 03:34N 35°27' E 139°48'1110.5
2017-Mar-23 02:32N 35°31' E 139°60'6 1.1
2017-Mar-22 21:10N 35°35' E 140°05'1 0.8
2017-Mar-22 19:26N 35°36' E 140°06'0 0.0
2017-Mar-22 18:20N 35°36' E 140°06'0 0.0
2017-Mar-22 17:32N 35°36' E 140°06'0 0.0
2017-Mar-22 16:33N 35°36' E 140°06'0 0.0
2017-Mar-22 15:33N 35°36' E 140°06'9 0.9
2017-Mar-22 05:28N 35°32' E 139°56'4 4.7
2017-Mar-22 04:34N 35°31' E 139°51'0 0.0
2017-Mar-22 03:33N 35°31' E 139°51'4 4.2
2017-Mar-22 02:33N 35°32' E 139°46'0 0.0
2017-Mar-22 01:33N 35°32' E 139°46'0 0.0
2017-Mar-22 00:34N 35°32' E 139°46'0 0.0
2017-Mar-21 23:34N 35°32' E 139°46'4 3.5
2017-Mar-21 22:33N 35°29' E 139°49'0 0.0
2017-Mar-21 21:33N 35°29' E 139°49'0 0.1
2017-Mar-21 20:33N 35°29' E 139°49'9 8.9
2017-Mar-21 19:33N 35°21' E 139°45'8 8.4
2017-Mar-21 18:33N 35°13' E 139°47'10 9.9
2017-Mar-21 17:33N 35°04' E 139°42'1110.4
2017-Mar-21 16:30N 34°57' E 139°31'  
2017-Mar-19 05:28N 34°37' E 135°01'1111.5
2017-Mar-19 04:33N 34°37' E 135°14'1010.2
2017-Mar-19 03:33N 34°39' E 135°26'2 0.5
2017-Mar-18 23:30N 34°38' E 135°29'5 5.8
2017-Mar-18 22:33N 34°38' E 135°22'1 1.0
2017-Mar-18 21:33N 34°39' E 135°21'0 0.0
2017-Mar-18 20:33N 34°39' E 135°21'0 0.0
2017-Mar-18 19:33N 34°39' E 135°21'0 0.0
2017-Mar-18 18:33N 34°39' E 135°21'0 0.0
2017-Mar-18 17:33N 34°39' E 135°21'0 0.0
2017-Mar-18 16:33N 34°39' E 135°21'1010.0
2017-Mar-18 15:33N 34°35' E 135°09'9 8.8
2017-Mar-18 14:32N 34°37' E 134°59'  
2017-Mar-14 08:33N 35°01' E 139°31'1111.1
2017-Mar-14 07:33N 35°07' E 139°42'10 9.8
2017-Mar-14 06:34N 35°17' E 139°45'9 8.9
2017-Mar-14 05:33N 35°26' E 139°45'1210.5
2017-Mar-14 04:27N 35°30' E 139°58'3 0.6
2017-Mar-13 23:19N 35°31' E 140°02'  
Track history (hours):
 
Tides and Currents Weather Stations Pressure Air Temp Water Temp Dewpoint Dewpoint Depression Visibility Wind Speed Wind Dir Waves Ship Positions

Eikamaru No.2

Last reported at 2017-Mar-23 05:11 UTC. Time now 2017-Mar-24 08:17 UTC.
Position N 35°12' E 139°46'.

Length 60 m; draft 3.3 m.

Type: Tanker. MMSI: 431001342.

Date/timePositionNaut miles runAvg speedWind from/ knotsBaromVisibWave heightAir tempDewpointWater temp
2017-Mar-23 05:11N 35°12' E 139°46'710.8
2017-Mar-23 04:33N 35°19' E 139°43'9 9.2
2017-Mar-23 03:34N 35°27' E 139°48'1110.5
2017-Mar-23 02:32N 35°31' E 139°60'6 1.1
2017-Mar-22 21:10N 35°35' E 140°05'1 0.8
2017-Mar-22 19:26N 35°36' E 140°06'0 0.0
2017-Mar-22 18:20N 35°36' E 140°06'0 0.0
2017-Mar-22 17:32N 35°36' E 140°06'0 0.0
2017-Mar-22 16:33N 35°36' E 140°06'0 0.0
2017-Mar-22 15:33N 35°36' E 140°06'9 0.9
2017-Mar-22 05:28N 35°32' E 139°56'4 4.7
2017-Mar-22 04:34N 35°31' E 139°51'0 0.0
2017-Mar-22 03:33N 35°31' E 139°51'4 4.2
2017-Mar-22 02:33N 35°32' E 139°46'0 0.0
2017-Mar-22 01:33N 35°32' E 139°46'0 0.0
2017-Mar-22 00:34N 35°32' E 139°46'0 0.0
2017-Mar-21 23:34N 35°32' E 139°46'4 3.5
2017-Mar-21 22:33N 35°29' E 139°49'0 0.0
2017-Mar-21 21:33N 35°29' E 139°49'0 0.1
2017-Mar-21 20:33N 35°29' E 139°49'9 8.9
2017-Mar-21 19:33N 35°21' E 139°45'8 8.4
2017-Mar-21 18:33N 35°13' E 139°47'10 9.9
2017-Mar-21 17:33N 35°04' E 139°42'1110.4
2017-Mar-21 16:30N 34°57' E 139°31'  
2017-Mar-19 05:28N 34°37' E 135°01'1111.5
2017-Mar-19 04:33N 34°37' E 135°14'1010.2
2017-Mar-19 03:33N 34°39' E 135°26'2 0.5
2017-Mar-18 23:30N 34°38' E 135°29'5 5.8
2017-Mar-18 22:33N 34°38' E 135°22'1 1.0
2017-Mar-18 21:33N 34°39' E 135°21'0 0.0
2017-Mar-18 20:33N 34°39' E 135°21'0 0.0
2017-Mar-18 19:33N 34°39' E 135°21'0 0.0
2017-Mar-18 18:33N 34°39' E 135°21'0 0.0
2017-Mar-18 17:33N 34°39' E 135°21'0 0.0
2017-Mar-18 16:33N 34°39' E 135°21'1010.0
2017-Mar-18 15:33N 34°35' E 135°09'9 8.8
2017-Mar-18 14:32N 34°37' E 134°59'  
2017-Mar-14 08:33N 35°01' E 139°31'1111.1
2017-Mar-14 07:33N 35°07' E 139°42'10 9.8
2017-Mar-14 06:34N 35°17' E 139°45'9 8.9
2017-Mar-14 05:33N 35°26' E 139°45'1210.5
2017-Mar-14 04:27N 35°30' E 139°58'3 0.6
2017-Mar-13 23:19N 35°31' E 140°02'  

Dump ship's entire track history